South Cle Elum, Washington
Current Conditions -  °F | °C
As of 4:53 PM on Friday 19 Dec 2014 (Local Time) from KELN Reporting Station
Clear Clear  
Wind Chill: 39°   Ceiling: Unl
Heat Index: 39°   Visibility: 10mi
Dew Point: 33°   Wind: 3mph
Humidity: 79%   Direction: 300°WNW
Pressure: 29.96"   Gusts: NA
Location:  47.19°N, 120.95°W
Report Text: KELN 200053Z AUTO 30003KT 10SM CLR 04/01 A2996 RMK AO2 SLP154 T00390006
Loading
Personal Weather Stations






























Interactive Weather Map New forecast layout! Learn more

10-Day Weather Forecast

Advertisements
Track Severe Weather on mobile